Check out our new BloomSky Weather System.

Active alerts


No alerts


Thunder radar  blitzortung!


Rain radar more information rain snow radar


Visit our other weather sites:

Template documentation
and downloads

And another site



Weather Underground History page Text

Daily Summary for July 11, 2017 Units:  Metric    English   Both
« Previous Day
Next Day »
Daily Weekly Monthly Yearly Custom
  High: Low: Average:
Temperature: 35.2 °C 23.8 °C 28.9 °C
Dew Point: 26.6 °C 23.3 °C 24.6 °C
Humidity: 98 % 55 % 79 %
Wind Speed: 19.3 km/h 0 km/h 3.4 km/h
Wind Gust: 30.6 km/h - -
Wind:- - SE
Pressure: 1016.1 hPa 1013.4 hPa -
Precipitation: 0 mm    
Historical Graphs
 
 
Tabular Data for July 11, 2017
Time Temperature Dew Point Pressure Wind Wind Speed Wind Gust Humidity Rainfall Rate (Hourly)
00:01 25.8 °C 24.2 °C 1015.5 hPa Calm   4.8 km/h 91 % 0 mm
00:06 25.8 °C 24 °C 1015.5 hPa Calm   4.8 km/h 90 % 0 mm
00:11 25.8 °C 24.2 °C 1015.5 hPa Calm   4.8 km/h 91 % 0 mm
00:16 25.8 °C 24.2 °C 1015.5 hPa Calm   3.2 km/h 91 % 0 mm
00:21 25.7 °C 24.1 °C 1015.5 hPa Calm   3.2 km/h 91 % 0 mm
00:26 25.7 °C 24.1 °C 1015.1 hPa SE 1.6 km/h 3.2 km/h 91 % 0 mm
00:31 25.7 °C 24.1 °C 1015.1 hPa SE 1.6 km/h 3.2 km/h 91 % 0 mm
00:36 25.7 °C 24.1 °C 1015.1 hPa Calm   3.2 km/h 91 % 0 mm
00:41 25.7 °C 24.3 °C 1015.1 hPa Calm   3.2 km/h 92 % 0 mm
00:46 25.6 °C 24.2 °C 1015.1 hPa Calm   3.2 km/h 92 % 0 mm
00:51 25.5 °C 24.1 °C 1015.1 hPa Calm   1.6 km/h 92 % 0 mm
00:56 25.4 °C 24 °C 1015.1 hPa Calm   1.6 km/h 92 % 0 mm
01:01 25.4 °C 24 °C 1015.1 hPa Calm   1.6 km/h 92 % 0 mm
01:06 25.4 °C 24 °C 1014.8 hPa Calm     92 % 0 mm
01:11 25.3 °C 24.1 °C 1014.8 hPa Calm     93 % 0 mm
01:16 25.3 °C 24.1 °C 1014.8 hPa Calm     93 % 0 mm
01:21 25.3 °C 24.1 °C 1014.8 hPa Calm     93 % 0 mm
01:26 25.2 °C 24 °C 1014.8 hPa Calm     93 % 0 mm
01:31 25.1 °C 23.9 °C 1014.8 hPa Calm     93 % 0 mm
01:36 25.1 °C 23.9 °C 1014.8 hPa Calm     93 % 0 mm
01:41 25.1 °C 24.1 °C 1014.8 hPa Calm     94 % 0 mm
01:46 25.1 °C 24.1 °C 1014.8 hPa Calm     94 % 0 mm
01:51 25.1 °C 24.1 °C 1014.8 hPa Calm     94 % 0 mm
01:56 25.1 °C 24.1 °C 1014.8 hPa Calm     94 % 0 mm
02:01 25.1 °C 24.1 °C 1014.8 hPa Calm     94 % 0 mm
02:06 24.9 °C 23.9 °C 1014.4 hPa Calm     94 % 0 mm
02:11 24.9 °C 23.9 °C 1014.4 hPa Calm     94 % 0 mm
02:16 24.8 °C 23.8 °C 1014.4 hPa Calm     94 % 0 mm
02:21 24.8 °C 23.9 °C 1014.4 hPa Calm     95 % 0 mm
02:26 24.8 °C 23.9 °C 1014.4 hPa Calm     95 % 0 mm
02:31 24.7 °C 23.8 °C 1014.4 hPa Calm     95 % 0 mm
02:32 24.7 °C 23.8 °C 1014.4 hPa Calm     95 % 0 mm
02:37 24.7 °C 23.8 °C 1014.4 hPa Calm     95 % 0 mm
02:38 24.7 °C 23.8 °C 1014.4 hPa Calm     95 % 0 mm
02:43 24.6 °C 23.7 °C 1014.4 hPa Calm     95 % 0 mm
02:48 24.4 °C 23.5 °C 1014.4 hPa Calm     95 % 0 mm
02:53 24.4 °C 23.5 °C 1014.4 hPa Calm     95 % 0 mm
02:58 24.4 °C 23.5 °C 1014.4 hPa Calm     95 % 0 mm
03:03 24.4 °C 23.5 °C 1014.4 hPa Calm     95 % 0 mm
03:08 24.3 °C 23.4 °C 1014.4 hPa Calm     95 % 0 mm
03:14 24.3 °C 23.6 °C 1014.4 hPa Calm     96 % 0 mm
03:19 24.3 °C 23.6 °C 1014.4 hPa Calm     96 % 0 mm
03:24 24.3 °C 23.6 °C 1014.4 hPa Calm     96 % 0 mm
03:29 24.3 °C 23.6 °C 1014.4 hPa Calm     96 % 0 mm
03:34 24.3 °C 23.6 °C 1014.4 hPa Calm     96 % 0 mm
03:39 24.2 °C 23.5 °C 1014.4 hPa Calm     96 % 0 mm
03:44 24.3 °C 23.8 °C 1014.4 hPa Calm     97 % 0 mm
03:49 24.3 °C 23.8 °C 1014.4 hPa Calm     97 % 0 mm
03:54 24.3 °C 23.6 °C 1014.4 hPa Calm     96 % 0 mm
04:58 24.1 °C 23.6 °C 1014.4 hPa Calm     97 % 0 mm
05:03 23.9 °C 23.4 °C 1014.4 hPa Calm     97 % 0 mm
05:08 24 °C 23.5 °C 1014.4 hPa Calm     97 % 0 mm
05:13 24 °C 23.7 °C 1014.4 hPa Calm     98 % 0 mm
05:18 24.1 °C 23.8 °C 1014.4 hPa Calm     98 % 0 mm
05:23 24 °C 23.5 °C 1014.8 hPa Calm     97 % 0 mm
05:28 23.9 °C 23.4 °C 1014.8 hPa Calm     97 % 0 mm
05:33 23.8 °C 23.3 °C 1014.8 hPa Calm     97 % 0 mm
05:38 23.8 °C 23.5 °C 1014.8 hPa Calm     98 % 0 mm
05:43 23.9 °C 23.6 °C 1014.8 hPa Calm     98 % 0 mm
05:48 23.9 °C 23.6 °C 1015.1 hPa Calm     98 % 0 mm
05:53 23.9 °C 23.6 °C 1015.1 hPa Calm     98 % 0 mm
05:58 23.9 °C 23.6 °C 1015.1 hPa Calm     98 % 0 mm
06:03 23.9 °C 23.6 °C 1015.1 hPa Calm     98 % 0 mm
06:08 23.9 °C 23.6 °C 1015.1 hPa Calm     98 % 0 mm
06:13 23.9 °C 23.6 °C 1015.1 hPa Calm     98 % 0 mm
06:18 23.9 °C 23.6 °C 1015.1 hPa Calm     98 % 0 mm
06:23 23.9 °C 23.6 °C 1015.1 hPa Calm     98 % 0 mm
06:38 24.1 °C 23.8 °C 1015.1 hPa Calm     98 % 0 mm
06:49 24.1 °C 23.8 °C 1015.1 hPa Calm     98 % 0 mm
06:54 24.3 °C 24 °C 1015.1 hPa Calm     98 % 0 mm
06:59 24.3 °C 24 °C 1015.5 hPa Calm     98 % 0 mm
07:04 24.4 °C 24.1 °C 1015.5 hPa Calm     98 % 0 mm
07:09 24.6 °C 24.3 °C 1015.5 hPa Calm     98 % 0 mm
07:14 24.9 °C 24.6 °C 1015.5 hPa Calm     98 % 0 mm
07:19 25.2 °C 24.9 °C 1015.5 hPa Calm     98 % 0 mm
07:24 25.5 °C 25.2 °C 1015.5 hPa Calm     98 % 0 mm
07:29 25.6 °C 25.3 °C 1015.5 hPa Calm     98 % 0 mm
07:34 25.4 °C 25.1 °C 1015.5 hPa Calm     98 % 0 mm
07:39 25.5 °C 25.2 °C 1015.8 hPa Calm     98 % 0 mm
07:44 25.6 °C 25.3 °C 1015.8 hPa Calm     98 % 0 mm
07:49 25.6 °C 25.3 °C 1015.8 hPa Calm     98 % 0 mm
07:54 25.6 °C 25.3 °C 1016.1 hPa Calm     98 % 0 mm
07:59 25.7 °C 25.4 °C 1016.1 hPa Calm   1.6 km/h 98 % 0 mm
08:04 25.7 °C 25.4 °C 1016.1 hPa Calm   1.6 km/h 98 % 0 mm
08:09 25.8 °C 25.3 °C 1016.1 hPa Calm   1.6 km/h 97 % 0 mm
08:14 25.8 °C 25.3 °C 1016.1 hPa Calm   1.6 km/h 97 % 0 mm
08:19 25.9 °C 25.4 °C 1016.1 hPa Calm   1.6 km/h 97 % 0 mm
08:24 26 °C 25.5 °C 1016.1 hPa SE 1.6 km/h 1.6 km/h 97 % 0 mm
08:29 26.1 °C 25.6 °C 1016.1 hPa Calm   1.6 km/h 97 % 0 mm
08:34 26.3 °C 25.8 °C 1016.1 hPa Calm   1.6 km/h 97 % 0 mm
08:39 26.6 °C 26.1 °C 1016.1 hPa Calm   1.6 km/h 97 % 0 mm
08:44 26.7 °C 26.2 °C 1016.1 hPa SE 1.6 km/h 1.6 km/h 97 % 0 mm
08:49 26.8 °C 26.1 °C 1016.1 hPa Calm   1.6 km/h 96 % 0 mm
08:54 27 °C 26.1 °C 1016.1 hPa Calm   1.6 km/h 95 % 0 mm
08:57 27.1 °C 26.2 °C 1016.1 hPa Calm   1.6 km/h 95 % 0 mm
09:58 29.4 °C 26.6 °C 1016.1 hPa SSW 4.8 km/h 8 km/h 85 % 0 mm
10:03 29.5 °C 26.1 °C 1016.1 hPa SSW 3.2 km/h 8 km/h 82 % 0 mm
10:08 29.7 °C 26.5 °C 1016.1 hPa Calm   8 km/h 83 % 0 mm
10:13 29.9 °C 26.5 °C 1016.1 hPa SSW 4.8 km/h 6.4 km/h 82 % 0 mm
10:18 30 °C 26.2 °C 1016.1 hPa SSE 1.6 km/h 6.4 km/h 80 % 0 mm
10:23 30 °C 26 °C 1016.1 hPa Calm   6.4 km/h 79 % 0 mm
10:28 30 °C 26.2 °C 1016.1 hPa South 3.2 km/h 6.4 km/h 80 % 0 mm
10:33 30.1 °C 26.3 °C 1016.1 hPa SSW 1.6 km/h 6.4 km/h 80 % 0 mm
10:38 30.1 °C 25.8 °C 1016.1 hPa South 1.6 km/h 8 km/h 78 % 0 mm
10:43 30.1 °C 25.8 °C 1016.1 hPa SE 4.8 km/h 8 km/h 78 % 0 mm
10:48 30.2 °C 26.1 °C 1016.1 hPa SSE 4.8 km/h 8 km/h 79 % 0 mm
10:53 30.6 °C 25.9 °C 1016.1 hPa South 3.2 km/h 8 km/h 76 % 0 mm
10:58 31.2 °C 26.2 °C 1015.8 hPa SSE 3.2 km/h 9.7 km/h 75 % 0 mm
11:03 31.4 °C 25.7 °C 1015.8 hPa East 4.8 km/h 9.7 km/h 72 % 0 mm
11:08 31.6 °C 25 °C 1015.8 hPa SSE 4.8 km/h 14.5 km/h 68 % 0 mm
11:13 31.8 °C 24.7 °C 1015.8 hPa SW 8 km/h 16.1 km/h 66 % 0 mm
11:18 32 °C 24.6 °C 1015.8 hPa SSE 9.7 km/h 16.1 km/h 65 % 0 mm
11:23 31.9 °C 24.5 °C 1015.8 hPa SSE 9.7 km/h 16.1 km/h 65 % 0 mm
11:28 32 °C 25.1 °C 1015.8 hPa SE 8 km/h 16.1 km/h 67 % 0 mm
11:33 32.3 °C 25.6 °C 1015.8 hPa Calm   16.1 km/h 68 % 0 mm
11:38 32.5 °C 25.3 °C 1015.5 hPa SE 4.8 km/h 12.9 km/h 66 % 0 mm
11:43 32.7 °C 25.8 °C 1015.5 hPa ESE 6.4 km/h 11.3 km/h 67 % 0 mm
11:48 32.8 °C 25.3 °C 1015.5 hPa WSW 8 km/h 12.9 km/h 65 % 0 mm
11:53 32.8 °C 24.8 °C 1015.5 hPa SSE 6.4 km/h 16.1 km/h 63 % 0 mm
11:58 32.8 °C 25.1 °C 1015.5 hPa SSE 11.3 km/h 16.1 km/h 64 % 0 mm
12:03 33 °C 25.3 °C 1015.5 hPa SSW 1.6 km/h 17.7 km/h 64 % 0 mm
12:08 33.2 °C 24.9 °C 1015.5 hPa SE 3.2 km/h 17.7 km/h 62 % 0 mm
12:13 33.4 °C 25.9 °C 1015.5 hPa South 4.8 km/h 17.7 km/h 65 % 0 mm
12:16 33.6 °C 24.8 °C 1015.5 hPa SW 3.2 km/h 12.9 km/h 60 % 0 mm
12:21 33.6 °C 25 °C 1015.1 hPa SW 4.8 km/h 12.9 km/h 61 % 0 mm
12:26 33.4 °C 24.8 °C 1015.1 hPa SSW 8 km/h 14.5 km/h 61 % 0 mm
12:31 33.4 °C 24.8 °C 1015.1 hPa South 3.2 km/h 14.5 km/h 61 % 0 mm
12:36 33.6 °C 25.8 °C 1015.1 hPa SSE 8 km/h 14.5 km/h 64 % 0 mm
12:41 33.7 °C 24.9 °C 1015.1 hPa SSW 4.8 km/h 14.5 km/h 60 % 0 mm
12:46 33.6 °C 25 °C 1015.1 hPa South 3.2 km/h 14.5 km/h 61 % 0 mm
12:51 33.6 °C 25.3 °C 1015.1 hPa SSW 3.2 km/h 14.5 km/h 62 % 0 mm
12:56 33.9 °C 25.3 °C 1015.1 hPa SSW 8 km/h 9.7 km/h 61 % 0 mm
13:01 33.9 °C 24.2 °C 1015.1 hPa SE 1.6 km/h 14.5 km/h 57 % 0 mm
13:06 33.9 °C 23.9 °C 1014.8 hPa ENE 3.2 km/h 14.5 km/h 56 % 0 mm
13:11 34.1 °C 24.9 °C 1014.8 hPa SE 9.7 km/h 14.5 km/h 59 % 0 mm
13:16 34.1 °C 24.1 °C 1014.8 hPa NNW 8 km/h 12.9 km/h 56 % 0 mm
13:21 34.2 °C 24.5 °C 1014.8 hPa South 11.3 km/h 12.9 km/h 57 % 0 mm
13:26 34.2 °C 24.8 °C 1014.8 hPa SE 8 km/h 16.1 km/h 58 % 0 mm
13:31 34.1 °C 24.7 °C 1014.8 hPa NNE 1.6 km/h 16.1 km/h 58 % 0 mm
13:36 34.5 °C 25 °C 1014.8 hPa ESE 6.4 km/h 16.1 km/h 58 % 0 mm
13:41 34.4 °C 25.2 °C 1014.4 hPa South 9.7 km/h 16.1 km/h 59 % 0 mm
13:46 34.5 °C 25 °C 1014.4 hPa SSW 6.4 km/h 16.1 km/h 58 % 0 mm
13:51 34.6 °C 24.5 °C 1014.4 hPa ESE 12.9 km/h 16.1 km/h 56 % 0 mm
13:57 34.4 °C 24.3 °C 1014.4 hPa ESE 6.4 km/h 16.1 km/h 56 % 0 mm
14:02 34.1 °C 24.9 °C 1014.4 hPa South 6.4 km/h 16.1 km/h 59 % 0 mm
14:07 34.2 °C 24.5 °C 1014.4 hPa SE 4.8 km/h 16.1 km/h 57 % 0 mm
14:12 34.3 °C 24.8 °C 1014.4 hPa East 9.7 km/h 14.5 km/h 58 % 0 mm
14:17 34.2 °C 24.8 °C 1014.4 hPa SSE 1.6 km/h 14.5 km/h 58 % 0 mm
14:22 34.1 °C 24.4 °C 1014.1 hPa South 1.6 km/h 14.5 km/h 57 % 0 mm
14:27 34.3 °C 24.3 °C 1014.1 hPa South 4.8 km/h 9.7 km/h 56 % 0 mm
14:32 34.1 °C 24.1 °C 1014.1 hPa SSE 8 km/h 11.3 km/h 56 % 0 mm
14:37 34.1 °C 24.1 °C 1013.8 hPa SSW 4.8 km/h 11.3 km/h 56 % 0 mm
14:42 34.3 °C 24.6 °C 1013.8 hPa SSE 8 km/h 11.3 km/h 57 % 0 mm
14:47 34.5 °C 25 °C 1013.8 hPa WSW 1.6 km/h 12.9 km/h 58 % 0 mm
14:52 34.7 °C 24.3 °C 1013.8 hPa Calm   12.9 km/h 55 % 0 mm
14:57 34.9 °C 24.5 °C 1013.8 hPa NW 1.6 km/h 12.9 km/h 55 % 0 mm
15:02 35.2 °C 24.8 °C 1013.8 hPa SSE 4.8 km/h 12.9 km/h 55 % 0 mm
15:07 34.8 °C 24.4 °C 1013.8 hPa East 3.2 km/h 12.9 km/h 55 % 0 mm
15:12 34.2 °C 23.9 °C 1013.8 hPa SE 1.6 km/h 12.9 km/h 55 % 0 mm
15:17 34.1 °C 24.1 °C 1013.8 hPa SSE 4.8 km/h 12.9 km/h 56 % 0 mm
15:23 33.9 °C 23.9 °C 1013.8 hPa SE 4.8 km/h 11.3 km/h 56 % 0 mm
15:27 33.9 °C 24.5 °C 1013.8 hPa Calm   9.7 km/h 58 % 0 mm
15:33 33.8 °C 24.4 °C 1013.8 hPa East 3.2 km/h 9.7 km/h 58 % 0 mm
15:38 34 °C 24 °C 1013.8 hPa ESE 6.4 km/h 12.9 km/h 56 % 0 mm
15:43 34.1 °C 24.1 °C 1013.8 hPa SSE 4.8 km/h 12.9 km/h 56 % 0 mm
15:48 34.2 °C 24.5 °C 1013.8 hPa SE 4.8 km/h 12.9 km/h 57 % 0 mm
15:53 34.3 °C 24.6 °C 1013.4 hPa ENE 6.4 km/h 12.9 km/h 57 % 0 mm
15:58 33.9 °C 24.5 °C 1013.4 hPa SSE 9.7 km/h 12.9 km/h 58 % 0 mm
16:03 33.6 °C 24.5 °C 1013.4 hPa SSE 6.4 km/h 12.9 km/h 59 % 0 mm
16:08 33.1 °C 24.8 °C 1013.8 hPa SE 11.3 km/h 16.1 km/h 62 % 0 mm
16:13 32.3 °C 24.9 °C 1013.8 hPa ESE 17.7 km/h 25.7 km/h 65 % 0 mm
16:18 31.4 °C 24 °C 1013.8 hPa ESE 19.3 km/h 30.6 km/h 65 % 0 mm
16:23 31 °C 24.1 °C 1013.8 hPa SE 6.4 km/h 30.6 km/h 67 % 0 mm
16:28 30.8 °C 24.2 °C 1013.8 hPa SE 4.8 km/h 30.6 km/h 68 % 0 mm
16:33 30.8 °C 24.4 °C 1013.4 hPa ESE 9.7 km/h 25.7 km/h 69 % 0 mm
16:38 30.8 °C 24.4 °C 1013.4 hPa East 4.8 km/h 17.7 km/h 69 % 0 mm
16:43 30.7 °C 24.6 °C 1013.8 hPa ENE 11.3 km/h 17.7 km/h 70 % 0 mm
16:48 30.5 °C 24.6 °C 1013.8 hPa SSW 6.4 km/h 16.1 km/h 71 % 0 mm
16:53 30.4 °C 24.5 °C 1013.8 hPa SE 4.8 km/h 16.1 km/h 71 % 0 mm
16:58 30.4 °C 24.3 °C 1013.8 hPa SE 6.4 km/h 16.1 km/h 70 % 0 mm
17:03 30.4 °C 24.3 °C 1013.4 hPa East 8 km/h 16.1 km/h 70 % 0 mm
17:08 30.3 °C 24.2 °C 1013.4 hPa SE 6.4 km/h 19.3 km/h 70 % 0 mm
17:13 30.3 °C 24.2 °C 1013.8 hPa SE 6.4 km/h 19.3 km/h 70 % 0 mm
17:18 30.3 °C 24.4 °C 1013.4 hPa ESE 3.2 km/h 19.3 km/h 71 % 0 mm
17:23 30.3 °C 24.2 °C 1013.4 hPa ESE 9.7 km/h 14.5 km/h 70 % 0 mm
17:25 30.2 °C 24.1 °C 1013.4 hPa ESE 3.2 km/h 14.5 km/h 70 % 0 mm
17:30 30.2 °C 24.1 °C 1013.4 hPa SE 8 km/h 14.5 km/h 70 % 0 mm
17:35 30.2 °C 24.4 °C 1013.4 hPa ESE 6.4 km/h 14.5 km/h 71 % 0 mm
17:40 30.2 °C 24.4 °C 1013.4 hPa East 8 km/h 12.9 km/h 71 % 0 mm
17:45 30.1 °C 24.3 °C 1013.4 hPa SE 6.4 km/h 12.9 km/h 71 % 0 mm
17:50 29.9 °C 24.1 °C 1013.4 hPa SE 9.7 km/h 14.5 km/h 71 % 0 mm
17:55 29.8 °C 24 °C 1013.4 hPa SE 8 km/h 14.5 km/h 71 % 0 mm
18:00 29.7 °C 23.9 °C 1013.4 hPa ESE 8 km/h 16.1 km/h 71 % 0 mm
18:05 29.7 °C 23.9 °C 1013.4 hPa SSE 6.4 km/h 16.1 km/h 71 % 0 mm
18:10 29.7 °C 23.9 °C 1013.4 hPa South 6.4 km/h 16.1 km/h 71 % 0 mm
18:15 29.7 °C 24.1 °C 1013.4 hPa SSE 4.8 km/h 16.1 km/h 72 % 0 mm
18:16 29.8 °C 24.4 °C 1013.4 hPa Calm   16.1 km/h 73 % 0 mm
18:21 29.9 °C 24.3 °C 1013.4 hPa South 6.4 km/h 16.1 km/h 72 % 0 mm
18:26 30.1 °C 24.7 °C 1013.4 hPa SSE 3.2 km/h 16.1 km/h 73 % 0 mm
18:31 30.2 °C 24.8 °C 1013.4 hPa ESE 4.8 km/h 12.9 km/h 73 % 0 mm
18:36 30.3 °C 24.9 °C 1013.4 hPa ESE 4.8 km/h 12.9 km/h 73 % 0 mm
18:41 30.4 °C 25 °C 1013.4 hPa SSE 6.4 km/h 12.9 km/h 73 % 0 mm
18:46 30.4 °C 25 °C 1013.4 hPa SE 12.9 km/h 12.9 km/h 73 % 0 mm
18:51 30.4 °C 25 °C 1013.4 hPa ESE 6.4 km/h 17.7 km/h 73 % 0 mm
18:56 30.4 °C 25 °C 1013.8 hPa ESE 3.2 km/h 17.7 km/h 73 % 0 mm
19:01 30.3 °C 24.9 °C 1013.8 hPa SE 9.7 km/h 17.7 km/h 73 % 0 mm
19:06 30.3 °C 24.9 °C 1013.8 hPa SE 9.7 km/h 16.1 km/h 73 % 0 mm
19:12 30.3 °C 24.9 °C 1013.8 hPa ESE 9.7 km/h 16.1 km/h 73 % 0 mm
19:17 30.3 °C 24.9 °C 1013.8 hPa South 8 km/h 14.5 km/h 73 % 0 mm
19:22 30.3 °C 24.9 °C 1013.8 hPa SSE 4.8 km/h 17.7 km/h 73 % 0 mm
19:27 30.2 °C 24.8 °C 1013.8 hPa SSE 4.8 km/h 17.7 km/h 73 % 0 mm
19:32 30.2 °C 24.8 °C 1013.8 hPa SE 1.6 km/h 17.7 km/h 73 % 0 mm
19:37 30.1 °C 25 °C 1013.8 hPa SE 8 km/h 14.5 km/h 74 % 0 mm
19:42 30 °C 24.9 °C 1013.8 hPa SE 4.8 km/h 14.5 km/h 74 % 0 mm
19:47 29.9 °C 25 °C 1013.8 hPa East 3.2 km/h 11.3 km/h 75 % 0 mm
19:52 29.9 °C 25 °C 1013.8 hPa ESE 3.2 km/h 9.7 km/h 75 % 0 mm
19:57 29.9 °C 25 °C 1013.8 hPa SSE 6.4 km/h 9.7 km/h 75 % 0 mm
20:02 29.8 °C 25.1 °C 1013.8 hPa SE 4.8 km/h 9.7 km/h 76 % 0 mm
20:07 29.8 °C 25.1 °C 1013.8 hPa SE 3.2 km/h 9.7 km/h 76 % 0 mm
20:12 29.7 °C 25 °C 1013.8 hPa East 3.2 km/h 11.3 km/h 76 % 0 mm
20:17 29.7 °C 25.2 °C 1013.8 hPa SE 3.2 km/h 11.3 km/h 77 % 0 mm
20:22 29.7 °C 25.2 °C 1013.8 hPa ESE 4.8 km/h 11.3 km/h 77 % 0 mm
20:27 29.6 °C 25.1 °C 1013.8 hPa SE 4.8 km/h 8 km/h 77 % 0 mm
20:32 29.6 °C 25.4 °C 1013.8 hPa Calm   8 km/h 78 % 0 mm
20:37 29.4 °C 25.2 °C 1013.8 hPa SE 4.8 km/h 8 km/h 78 % 0 mm
20:42 29.4 °C 25.4 °C 1013.8 hPa SSE 3.2 km/h 8 km/h 79 % 0 mm
20:47 29.3 °C 25.3 °C 1013.8 hPa SE 8 km/h 8 km/h 79 % 0 mm
20:52 29.3 °C 25.5 °C 1014.1 hPa East 1.6 km/h 11.3 km/h 80 % 0 mm
20:57 29.3 °C 25.5 °C 1014.1 hPa SE 3.2 km/h 11.3 km/h 80 % 0 mm
21:02 29.2 °C 25.4 °C 1014.1 hPa ESE 3.2 km/h 11.3 km/h 80 % 0 mm
21:07 29.1 °C 25.5 °C 1014.1 hPa SSE 3.2 km/h 9.7 km/h 81 % 0 mm
21:12 29.1 °C 25.5 °C 1014.1 hPa ESE 4.8 km/h 8 km/h 81 % 0 mm
21:17 28.9 °C 25.3 °C 1014.1 hPa SE 4.8 km/h 8 km/h 81 % 0 mm
21:22 29 °C 25.2 °C 1014.1 hPa ESE 4.8 km/h 12.9 km/h 80 % 0 mm
21:27 29 °C 25 °C 1014.4 hPa SE 4.8 km/h 12.9 km/h 79 % 0 mm
21:32 29 °C 25 °C 1014.4 hPa East 8 km/h 12.9 km/h 79 % 0 mm
21:37 28.9 °C 24.9 °C 1014.4 hPa SSE 4.8 km/h 9.7 km/h 79 % 0 mm
21:42 28.9 °C 24.9 °C 1014.4 hPa SE 4.8 km/h 9.7 km/h 79 % 0 mm
21:47 28.8 °C 24.8 °C 1014.4 hPa SE 4.8 km/h 9.7 km/h 79 % 0 mm
21:52 28.8 °C 24.8 °C 1014.4 hPa SE 4.8 km/h 11.3 km/h 79 % 0 mm
21:57 28.8 °C 24.8 °C 1014.8 hPa SE 1.6 km/h 11.3 km/h 79 % 0 mm
22:02 28.8 °C 24.8 °C 1014.8 hPa SSE 6.4 km/h 11.3 km/h 79 % 0 mm
22:07 28.8 °C 24.8 °C 1014.8 hPa ESE 3.2 km/h 11.3 km/h 79 % 0 mm
22:12 28.7 °C 24.7 °C 1014.8 hPa SSE 3.2 km/h 8 km/h 79 % 0 mm
22:17 28.7 °C 24.7 °C 1014.8 hPa South 6.4 km/h 9.7 km/h 79 % 0 mm
22:22 28.7 °C 24.7 °C 1014.8 hPa SSE 6.4 km/h 11.3 km/h 79 % 0 mm
22:27 28.6 °C 24.8 °C 1014.8 hPa SSW 4.8 km/h 11.3 km/h 80 % 0 mm
22:32 28.6 °C 24.8 °C 1015.1 hPa ESE 6.4 km/h 11.3 km/h 80 % 0 mm
22:37 28.5 °C 24.7 °C 1015.1 hPa SSE 3.2 km/h 11.3 km/h 80 % 0 mm
22:42 28.4 °C 24.8 °C 1015.1 hPa SSE 3.2 km/h 11.3 km/h 81 % 0 mm
22:47 28.3 °C 24.7 °C 1015.1 hPa SE 3.2 km/h 11.3 km/h 81 % 0 mm
22:52 28.3 °C 24.9 °C 1015.5 hPa SSE 3.2 km/h 8 km/h 82 % 0 mm
22:57 28.2 °C 24.8 °C 1015.5 hPa ESE 1.6 km/h 8 km/h 82 % 0 mm
23:02 28.2 °C 24.8 °C 1015.5 hPa East 3.2 km/h 8 km/h 82 % 0 mm
23:07 28.1 °C 24.7 °C 1015.5 hPa SSE 3.2 km/h 8 km/h 82 % 0 mm
23:12 28.1 °C 24.9 °C 1015.5 hPa South 4.8 km/h 8 km/h 83 % 0 mm
23:17 27.9 °C 24.7 °C 1015.5 hPa SE 3.2 km/h 8 km/h 83 % 0 mm
23:22 27.9 °C 24.7 °C 1015.5 hPa SE 1.6 km/h 8 km/h 83 % 0 mm
23:27 27.8 °C 24.6 °C 1015.5 hPa ESE 1.6 km/h 8 km/h 83 % 0 mm
23:32 27.8 °C 24.8 °C 1015.5 hPa Calm   8 km/h 84 % 0 mm
23:37 27.7 °C 24.7 °C 1015.5 hPa SE 1.6 km/h 4.8 km/h 84 % 0 mm
23:42 27.7 °C 24.7 °C 1015.5 hPa Calm   4.8 km/h 84 % 0 mm
23:47 27.7 °C 24.7 °C 1015.5 hPa Calm   4.8 km/h 84 % 0 mm
23:52 27.6 °C 24.6 °C 1015.5 hPa SE 1.6 km/h 4.8 km/h 84 % 0 mm
23:57 27.5 °C 24.7 °C 1015.5 hPa SSE 1.6 km/h 6.4 km/h 85 % 0 mm
Spring, Texas: Villages of Bridgestone
Compliments of Weather Underground - 3 mb

Script developed by  Jim McMurry - jmcmurry@mwt.net Adapted for the template by  Wim van der Kuil - Leuven-Template.eu

You find our weather info also at:

UK Metoffice

WeatherCloud

Weather Underground

Mid-South Weather Network

AWEKAS

Citizen Weather Observer Program (CWOP)

HAMweather, WeatherForYou, PWS Weather

Equipment we use:

Weather-station
Davis Vantage Vue

Weather-program
Meteohub

Weather-server
Debian 7.9 x86 (Guest)

Provider
DreamHost

Davis Vantage Vue

Meteohub

Debian 7.9 x86 (Guest)

DreamHost